sensor_id;sensor_type;location;lat;lon;timestamp;P1;durP1;ratioP1;P2;durP2;ratioP2
15946;SDS011;8072;52.554;7.966;2023-04-24T00:02:11;2.67;;;1.83;;
15946;SDS011;8072;52.554;7.966;2023-04-24T00:04:38;2.27;;;1.80;;
15946;SDS011;8072;52.554;7.966;2023-04-24T00:07:05;2.30;;;2.10;;
15946;SDS011;8072;52.554;7.966;2023-04-24T00:09:32;3.30;;;2.40;;
15946;SDS011;8072;52.554;7.966;2023-04-24T00:11:58;4.60;;;2.87;;
15946;SDS011;8072;52.554;7.966;2023-04-24T00:14:25;3.60;;;2.70;;
15946;SDS011;8072;52.554;7.966;2023-04-24T00:16:51;3.53;;;2.87;;
15946;SDS011;8072;52.554;7.966;2023-04-24T00:19:16;3.73;;;3.43;;
15946;SDS011;8072;52.554;7.966;2023-04-24T00:21:42;3.80;;;3.40;;
15946;SDS011;8072;52.554;7.966;2023-04-24T00:24:08;4.83;;;3.17;;
15946;SDS011;8072;52.554;7.966;2023-04-24T00:26:34;3.30;;;3.00;;
15946;SDS011;8072;52.554;7.966;2023-04-24T00:29:00;3.03;;;2.83;;
15946;SDS011;8072;52.554;7.966;2023-04-24T00:31:26;4.03;;;3.00;;
15946;SDS011;8072;52.554;7.966;2023-04-24T00:33:51;2.90;;;2.70;;
15946;SDS011;8072;52.554;7.966;2023-04-24T00:36:17;2.97;;;2.73;;
15946;SDS011;8072;52.554;7.966;2023-04-24T00:38:45;3.30;;;2.90;;
15946;SDS011;8072;52.554;7.966;2023-04-24T00:41:11;2.90;;;2.70;;
15946;SDS011;8072;52.554;7.966;2023-04-24T00:43:37;3.60;;;3.30;;
15946;SDS011;8072;52.554;7.966;2023-04-24T00:46:03;3.10;;;2.90;;
15946;SDS011;8072;52.554;7.966;2023-04-24T00:48:29;3.23;;;2.97;;
15946;SDS011;8072;52.554;7.966;2023-04-24T00:50:56;3.20;;;3.00;;
15946;SDS011;8072;52.554;7.966;2023-04-24T00:53:23;3.43;;;3.13;;
15946;SDS011;8072;52.554;7.966;2023-04-24T00:55:49;3.20;;;3.00;;
15946;SDS011;8072;52.554;7.966;2023-04-24T00:58:16;2.90;;;2.60;;
15946;SDS011;8072;52.554;7.966;2023-04-24T01:00:42;3.27;;;3.07;;
15946;SDS011;8072;52.554;7.966;2023-04-24T01:03:08;3.27;;;3.07;;
15946;SDS011;8072;52.554;7.966;2023-04-24T01:05:36;3.63;;;3.20;;
15946;SDS011;8072;52.554;7.966;2023-04-24T01:08:01;2.80;;;2.60;;
15946;SDS011;8072;52.554;7.966;2023-04-24T01:10:28;2.70;;;2.50;;
15946;SDS011;8072;52.554;7.966;2023-04-24T01:12:56;2.80;;;2.50;;
15946;SDS011;8072;52.554;7.966;2023-04-24T01:15:23;2.90;;;2.70;;
15946;SDS011;8072;52.554;7.966;2023-04-24T01:17:49;3.37;;;2.57;;
15946;SDS011;8072;52.554;7.966;2023-04-24T01:20:15;2.40;;;2.20;;
15946;SDS011;8072;52.554;7.966;2023-04-24T01:22:42;3.17;;;2.23;;
15946;SDS011;8072;52.554;7.966;2023-04-24T01:25:08;3.73;;;2.13;;
15946;SDS011;8072;52.554;7.966;2023-04-24T01:27:34;3.07;;;2.40;;
15946;SDS011;8072;52.554;7.966;2023-04-24T01:30:00;3.53;;;3.23;;
15946;SDS011;8072;52.554;7.966;2023-04-24T01:32:26;4.73;;;4.33;;
15946;SDS011;8072;52.554;7.966;2023-04-24T01:34:52;5.37;;;4.87;;
15946;SDS011;8072;52.554;7.966;2023-04-24T01:37:20;6.33;;;5.73;;
15946;SDS011;8072;52.554;7.966;2023-04-24T01:39:45;6.67;;;6.03;;
15946;SDS011;8072;52.554;7.966;2023-04-24T01:42:11;9.63;;;6.93;;
15946;SDS011;8072;52.554;7.966;2023-04-24T01:44:38;8.93;;;7.40;;
15946;SDS011;8072;52.554;7.966;2023-04-24T01:47:04;8.90;;;8.00;;
15946;SDS011;8072;52.554;7.966;2023-04-24T01:49:30;11.63;;;8.27;;
15946;SDS011;8072;52.554;7.966;2023-04-24T01:51:57;9.30;;;8.17;;
15946;SDS011;8072;52.554;7.966;2023-04-24T01:54:23;9.20;;;8.27;;
15946;SDS011;8072;52.554;7.966;2023-04-24T01:56:49;10.30;;;8.67;;
15946;SDS011;8072;52.554;7.966;2023-04-24T01:59:15;9.03;;;8.10;;
15946;SDS011;8072;52.554;7.966;2023-04-24T02:01:42;8.77;;;7.87;;
15946;SDS011;8072;52.554;7.966;2023-04-24T02:04:07;10.53;;;8.10;;
15946;SDS011;8072;52.554;7.966;2023-04-24T02:06:33;8.87;;;7.57;;
15946;SDS011;8072;52.554;7.966;2023-04-24T02:09:00;8.83;;;7.53;;
15946;SDS011;8072;52.554;7.966;2023-04-24T02:11:26;9.77;;;7.93;;
15946;SDS011;8072;52.554;7.966;2023-04-24T02:13:52;11.60;;;8.40;;
15946;SDS011;8072;52.554;7.966;2023-04-24T02:16:18;9.17;;;8.10;;
15946;SDS011;8072;52.554;7.966;2023-04-24T02:18:44;8.83;;;7.70;;
15946;SDS011;8072;52.554;7.966;2023-04-24T02:21:10;8.83;;;7.87;;
15946;SDS011;8072;52.554;7.966;2023-04-24T02:23:35;11.47;;;8.00;;
15946;SDS011;8072;52.554;7.966;2023-04-24T02:26:01;9.60;;;7.53;;
15946;SDS011;8072;52.554;7.966;2023-04-24T02:28:27;9.27;;;6.83;;
15946;SDS011;8072;52.554;7.966;2023-04-24T02:30:53;8.37;;;6.17;;
15946;SDS011;8072;52.554;7.966;2023-04-24T02:33:19;7.87;;;5.70;;
15946;SDS011;8072;52.554;7.966;2023-04-24T02:35:45;7.37;;;6.30;;
15946;SDS011;8072;52.554;7.966;2023-04-24T02:38:10;8.40;;;6.63;;
15946;SDS011;8072;52.554;7.966;2023-04-24T02:40:36;7.97;;;6.93;;
15946;SDS011;8072;52.554;7.966;2023-04-24T02:43:02;8.50;;;6.93;;
15946;SDS011;8072;52.554;7.966;2023-04-24T02:45:28;8.07;;;7.00;;
15946;SDS011;8072;52.554;7.966;2023-04-24T02:47:54;8.90;;;7.60;;
15946;SDS011;8072;52.554;7.966;2023-04-24T02:50:20;9.30;;;7.67;;
15946;SDS011;8072;52.554;7.966;2023-04-24T02:52:46;9.53;;;7.70;;
15946;SDS011;8072;52.554;7.966;2023-04-24T02:55:12;8.70;;;7.73;;
15946;SDS011;8072;52.554;7.966;2023-04-24T02:57:38;8.40;;;7.47;;
15946;SDS011;8072;52.554;7.966;2023-04-24T03:00:03;9.70;;;7.43;;
15946;SDS011;8072;52.554;7.966;2023-04-24T03:02:32;8.87;;;7.03;;
15946;SDS011;8072;52.554;7.966;2023-04-24T03:04:58;8.60;;;7.70;;
15946;SDS011;8072;52.554;7.966;2023-04-24T03:07:24;9.33;;;7.70;;
15946;SDS011;8072;52.554;7.966;2023-04-24T03:09:50;8.77;;;6.60;;
15946;SDS011;8072;52.554;7.966;2023-04-24T03:12:16;8.07;;;6.30;;
15946;SDS011;8072;52.554;7.966;2023-04-24T03:14:43;8.30;;;6.33;;
15946;SDS011;8072;52.554;7.966;2023-04-24T03:17:09;7.37;;;6.00;;
15946;SDS011;8072;52.554;7.966;2023-04-24T03:19:35;6.43;;;5.67;;
15946;SDS011;8072;52.554;7.966;2023-04-24T03:22:03;8.17;;;5.40;;
15946;SDS011;8072;52.554;7.966;2023-04-24T03:24:29;7.50;;;5.73;;
15946;SDS011;8072;52.554;7.966;2023-04-24T03:26:55;6.63;;;5.00;;
15946;SDS011;8072;52.554;7.966;2023-04-24T03:29:21;7.07;;;4.40;;
15946;SDS011;8072;52.554;7.966;2023-04-24T03:31:47;7.13;;;4.97;;
15946;SDS011;8072;52.554;7.966;2023-04-24T03:34:13;5.37;;;4.60;;
15946;SDS011;8072;52.554;7.966;2023-04-24T03:36:39;5.63;;;4.40;;
15946;SDS011;8072;52.554;7.966;2023-04-24T03:39:05;5.90;;;4.57;;
15946;SDS011;8072;52.554;7.966;2023-04-24T03:41:31;5.33;;;4.23;;
15946;SDS011;8072;52.554;7.966;2023-04-24T03:43:56;6.20;;;4.50;;
15946;SDS011;8072;52.554;7.966;2023-04-24T03:46:23;9.00;;;4.93;;
15946;SDS011;8072;52.554;7.966;2023-04-24T03:48:49;6.43;;;4.37;;
15946;SDS011;8072;52.554;7.966;2023-04-24T03:51:15;5.87;;;4.50;;
15946;SDS011;8072;52.554;7.966;2023-04-24T03:53:41;6.63;;;4.43;;
15946;SDS011;8072;52.554;7.966;2023-04-24T03:56:07;5.70;;;4.23;;
15946;SDS011;8072;52.554;7.966;2023-04-24T03:58:33;7.73;;;4.60;;
15946;SDS011;8072;52.554;7.966;2023-04-24T04:00:58;5.53;;;4.50;;
15946;SDS011;8072;52.554;7.966;2023-04-24T04:03:25;6.40;;;4.57;;
15946;SDS011;8072;52.554;7.966;2023-04-24T04:05:50;7.30;;;4.83;;
15946;SDS011;8072;52.554;7.966;2023-04-24T04:08:16;6.67;;;5.13;;
15946;SDS011;8072;52.554;7.966;2023-04-24T04:10:42;7.20;;;5.20;;
15946;SDS011;8072;52.554;7.966;2023-04-24T04:13:08;7.53;;;5.37;;
15946;SDS011;8072;52.554;7.966;2023-04-24T04:15:33;8.67;;;5.47;;
15946;SDS011;8072;52.554;7.966;2023-04-24T04:17:59;10.83;;;6.00;;
15946;SDS011;8072;52.554;7.966;2023-04-24T04:20:25;7.60;;;5.27;;
15946;SDS011;8072;52.554;7.966;2023-04-24T04:22:51;9.07;;;5.90;;
15946;SDS011;8072;52.554;7.966;2023-04-24T04:25:16;7.23;;;5.23;;
15946;SDS011;8072;52.554;7.966;2023-04-24T04:27:44;8.23;;;6.03;;
15946;SDS011;8072;52.554;7.966;2023-04-24T04:30:12;8.77;;;5.60;;
15946;SDS011;8072;52.554;7.966;2023-04-24T04:32:39;8.63;;;5.37;;
15946;SDS011;8072;52.554;7.966;2023-04-24T04:35:05;7.60;;;5.77;;
15946;SDS011;8072;52.554;7.966;2023-04-24T04:37:31;8.23;;;6.30;;
15946;SDS011;8072;52.554;7.966;2023-04-24T04:40:00;9.47;;;5.97;;
15946;SDS011;8072;52.554;7.966;2023-04-24T04:42:31;10.67;;;7.03;;
15946;SDS011;8072;52.554;7.966;2023-04-24T04:44:59;8.90;;;7.00;;
15946;SDS011;8072;52.554;7.966;2023-04-24T04:47:25;10.47;;;7.47;;
15946;SDS011;8072;52.554;7.966;2023-04-24T04:49:53;13.83;;;7.90;;
15946;SDS011;8072;52.554;7.966;2023-04-24T04:52:19;11.87;;;8.03;;
15946;SDS011;8072;52.554;7.966;2023-04-24T04:54:50;14.97;;;8.10;;
15946;SDS011;8072;52.554;7.966;2023-04-24T04:57:16;11.03;;;7.87;;
15946;SDS011;8072;52.554;7.966;2023-04-24T04:59:41;12.73;;;8.13;;
15946;SDS011;8072;52.554;7.966;2023-04-24T05:02:08;14.80;;;8.87;;
15946;SDS011;8072;52.554;7.966;2023-04-24T05:04:33;14.73;;;8.53;;
15946;SDS011;8072;52.554;7.966;2023-04-24T05:06:59;14.23;;;8.67;;
15946;SDS011;8072;52.554;7.966;2023-04-24T05:09:25;14.47;;;8.77;;
15946;SDS011;8072;52.554;7.966;2023-04-24T05:11:52;16.07;;;9.80;;
15946;SDS011;8072;52.554;7.966;2023-04-24T05:14:18;18.00;;;8.63;;
15946;SDS011;8072;52.554;7.966;2023-04-24T05:16:44;14.23;;;9.37;;
15946;SDS011;8072;52.554;7.966;2023-04-24T05:19:10;14.70;;;9.33;;
15946;SDS011;8072;52.554;7.966;2023-04-24T05:21:37;12.83;;;9.67;;
15946;SDS011;8072;52.554;7.966;2023-04-24T05:24:04;14.83;;;10.70;;
15946;SDS011;8072;52.554;7.966;2023-04-24T05:26:30;15.83;;;9.87;;
15946;SDS011;8072;52.554;7.966;2023-04-24T05:28:56;17.33;;;10.80;;
15946;SDS011;8072;52.554;7.966;2023-04-24T05:31:22;17.27;;;10.83;;
15946;SDS011;8072;52.554;7.966;2023-04-24T05:33:47;15.33;;;10.57;;
15946;SDS011;8072;52.554;7.966;2023-04-24T05:36:13;16.53;;;11.07;;
15946;SDS011;8072;52.554;7.966;2023-04-24T05:38:40;21.10;;;10.90;;
15946;SDS011;8072;52.554;7.966;2023-04-24T05:41:05;14.23;;;9.60;;
15946;SDS011;8072;52.554;7.966;2023-04-24T05:43:31;17.70;;;10.87;;
15946;SDS011;8072;52.554;7.966;2023-04-24T05:45:57;15.10;;;10.17;;
15946;SDS011;8072;52.554;7.966;2023-04-24T05:48:23;19.80;;;10.63;;
15946;SDS011;8072;52.554;7.966;2023-04-24T05:50:48;15.57;;;9.23;;
15946;SDS011;8072;52.554;7.966;2023-04-24T05:53:14;14.63;;;10.00;;
15946;SDS011;8072;52.554;7.966;2023-04-24T05:55:40;14.27;;;9.73;;
15946;SDS011;8072;52.554;7.966;2023-04-24T05:58:06;14.17;;;8.77;;
15946;SDS011;8072;52.554;7.966;2023-04-24T06:00:32;13.93;;;9.57;;
15946;SDS011;8072;52.554;7.966;2023-04-24T06:02:59;16.93;;;9.77;;
15946;SDS011;8072;52.554;7.966;2023-04-24T06:05:25;15.97;;;9.30;;
15946;SDS011;8072;52.554;7.966;2023-04-24T06:07:51;15.43;;;9.07;;
15946;SDS011;8072;52.554;7.966;2023-04-24T06:10:17;14.50;;;8.83;;
15946;SDS011;8072;52.554;7.966;2023-04-24T06:12:43;12.33;;;9.00;;
15946;SDS011;8072;52.554;7.966;2023-04-24T06:15:09;15.47;;;8.93;;
15946;SDS011;8072;52.554;7.966;2023-04-24T06:17:35;12.43;;;8.63;;
15946;SDS011;8072;52.554;7.966;2023-04-24T06:20:01;12.27;;;9.27;;
15946;SDS011;8072;52.554;7.966;2023-04-24T06:22:30;14.87;;;9.60;;
15946;SDS011;8072;52.554;7.966;2023-04-24T06:24:56;13.50;;;9.07;;
15946;SDS011;8072;52.554;7.966;2023-04-24T06:27:21;13.03;;;8.80;;
15946;SDS011;8072;52.554;7.966;2023-04-24T06:29:47;18.07;;;9.97;;
15946;SDS011;8072;52.554;7.966;2023-04-24T06:32:19;14.70;;;9.67;;
15946;SDS011;8072;52.554;7.966;2023-04-24T06:34:48;14.30;;;9.80;;
15946;SDS011;8072;52.554;7.966;2023-04-24T06:37:15;18.50;;;10.83;;
15946;SDS011;8072;52.554;7.966;2023-04-24T06:39:41;16.47;;;10.37;;
15946;SDS011;8072;52.554;7.966;2023-04-24T06:42:07;13.97;;;9.37;;
15946;SDS011;8072;52.554;7.966;2023-04-24T06:44:35;16.47;;;10.73;;
15946;SDS011;8072;52.554;7.966;2023-04-24T06:47:06;14.50;;;10.30;;
15946;SDS011;8072;52.554;7.966;2023-04-24T06:49:34;22.33;;;10.80;;
15946;SDS011;8072;52.554;7.966;2023-04-24T06:52:00;13.20;;;9.50;;
15946;SDS011;8072;52.554;7.966;2023-04-24T06:54:26;17.67;;;10.77;;
15946;SDS011;8072;52.554;7.966;2023-04-24T06:56:51;18.33;;;9.73;;
15946;SDS011;8072;52.554;7.966;2023-04-24T06:59:18;16.20;;;9.97;;
15946;SDS011;8072;52.554;7.966;2023-04-24T07:01:46;19.40;;;10.93;;
15946;SDS011;8072;52.554;7.966;2023-04-24T07:04:12;18.03;;;9.57;;
15946;SDS011;8072;52.554;7.966;2023-04-24T07:06:38;14.47;;;10.03;;
15946;SDS011;8072;52.554;7.966;2023-04-24T07:09:05;15.00;;;9.63;;
15946;SDS011;8072;52.554;7.966;2023-04-24T07:11:30;16.23;;;9.90;;
15946;SDS011;8072;52.554;7.966;2023-04-24T07:13:57;15.03;;;9.80;;
15946;SDS011;8072;52.554;7.966;2023-04-24T07:16:23;16.17;;;9.20;;
15946;SDS011;8072;52.554;7.966;2023-04-24T07:18:49;16.47;;;10.67;;
15946;SDS011;8072;52.554;7.966;2023-04-24T07:21:15;14.20;;;8.93;;
15946;SDS011;8072;52.554;7.966;2023-04-24T07:23:41;18.17;;;10.50;;
15946;SDS011;8072;52.554;7.966;2023-04-24T07:26:07;11.23;;;8.77;;
15946;SDS011;8072;52.554;7.966;2023-04-24T07:28:33;16.63;;;9.90;;
15946;SDS011;8072;52.554;7.966;2023-04-24T07:30:59;13.43;;;8.63;;
15946;SDS011;8072;52.554;7.966;2023-04-24T07:33:25;13.47;;;8.53;;
15946;SDS011;8072;52.554;7.966;2023-04-24T07:35:52;13.83;;;9.17;;
15946;SDS011;8072;52.554;7.966;2023-04-24T07:38:17;14.40;;;8.47;;
15946;SDS011;8072;52.554;7.966;2023-04-24T07:40:47;14.20;;;9.07;;
15946;SDS011;8072;52.554;7.966;2023-04-24T07:43:13;12.40;;;8.40;;
15946;SDS011;8072;52.554;7.966;2023-04-24T07:45:39;13.13;;;8.67;;
15946;SDS011;8072;52.554;7.966;2023-04-24T07:48:05;11.63;;;7.80;;
15946;SDS011;8072;52.554;7.966;2023-04-24T07:50:34;10.03;;;7.70;;
15946;SDS011;8072;52.554;7.966;2023-04-24T07:53:00;12.17;;;7.80;;
15946;SDS011;8072;52.554;7.966;2023-04-24T07:55:26;13.97;;;8.17;;
15946;SDS011;8072;52.554;7.966;2023-04-24T07:57:52;13.00;;;8.10;;
15946;SDS011;8072;52.554;7.966;2023-04-24T08:00:18;12.23;;;7.97;;
15946;SDS011;8072;52.554;7.966;2023-04-24T08:02:44;12.90;;;8.13;;
15946;SDS011;8072;52.554;7.966;2023-04-24T08:05:10;13.80;;;8.37;;
15946;SDS011;8072;52.554;7.966;2023-04-24T08:07:36;13.17;;;8.73;;
15946;SDS011;8072;52.554;7.966;2023-04-24T08:10:03;15.40;;;9.57;;
15946;SDS011;8072;52.554;7.966;2023-04-24T08:12:29;15.37;;;8.83;;
15946;SDS011;8072;52.554;7.966;2023-04-24T08:14:55;12.23;;;9.23;;
15946;SDS011;8072;52.554;7.966;2023-04-24T08:17:20;11.70;;;9.23;;
15946;SDS011;8072;52.554;7.966;2023-04-24T08:19:46;16.00;;;9.70;;
15946;SDS011;8072;52.554;7.966;2023-04-24T08:22:16;11.80;;;8.63;;
15946;SDS011;8072;52.554;7.966;2023-04-24T08:24:42;14.73;;;9.40;;
15946;SDS011;8072;52.554;7.966;2023-04-24T08:27:09;15.57;;;10.03;;
15946;SDS011;8072;52.554;7.966;2023-04-24T08:29:35;14.33;;;9.30;;
15946;SDS011;8072;52.554;7.966;2023-04-24T08:32:01;14.57;;;9.43;;
15946;SDS011;8072;52.554;7.966;2023-04-24T08:34:27;8.93;;;7.30;;
15946;SDS011;8072;52.554;7.966;2023-04-24T08:36:53;11.17;;;7.07;;
15946;SDS011;8072;52.554;7.966;2023-04-24T08:39:19;10.57;;;7.53;;
15946;SDS011;8072;52.554;7.966;2023-04-24T08:41:45;10.20;;;7.00;;
15946;SDS011;8072;52.554;7.966;2023-04-24T08:44:14;6.47;;;5.17;;
15946;SDS011;8072;52.554;7.966;2023-04-24T08:46:42;7.07;;;5.50;;
15946;SDS011;8072;52.554;7.966;2023-04-24T08:49:11;8.33;;;6.20;;
15946;SDS011;8072;52.554;7.966;2023-04-24T08:51:39;7.93;;;5.40;;
15946;SDS011;8072;52.554;7.966;2023-04-24T08:54:05;7.67;;;5.57;;
15946;SDS011;8072;52.554;7.966;2023-04-24T08:56:32;6.60;;;4.80;;
15946;SDS011;8072;52.554;7.966;2023-04-24T08:58:59;9.30;;;5.87;;
15946;SDS011;8072;52.554;7.966;2023-04-24T09:01:26;8.83;;;5.73;;
15946;SDS011;8072;52.554;7.966;2023-04-24T09:03:54;8.90;;;5.57;;
15946;SDS011;8072;52.554;7.966;2023-04-24T09:06:21;6.93;;;5.80;;
15946;SDS011;8072;52.554;7.966;2023-04-24T09:08:48;6.80;;;5.37;;
15946;SDS011;8072;52.554;7.966;2023-04-24T09:11:16;5.63;;;5.03;;
15946;SDS011;8072;52.554;7.966;2023-04-24T09:13:42;6.37;;;5.17;;
15946;SDS011;8072;52.554;7.966;2023-04-24T09:16:08;5.57;;;4.97;;
15946;SDS011;8072;52.554;7.966;2023-04-24T09:18:34;7.43;;;5.27;;
15946;SDS011;8072;52.554;7.966;2023-04-24T09:21:07;7.93;;;5.73;;
15946;SDS011;8072;52.554;7.966;2023-04-24T09:23:34;7.77;;;5.63;;
15946;SDS011;8072;52.554;7.966;2023-04-24T09:26:00;9.50;;;6.57;;
15946;SDS011;8072;52.554;7.966;2023-04-24T09:28:35;9.00;;;7.03;;
15946;SDS011;8072;52.554;7.966;2023-04-24T09:31:23;7.53;;;6.33;;
15946;SDS011;8072;52.554;7.966;2023-04-24T09:34:01;9.30;;;7.13;;
15946;SDS011;8072;52.554;7.966;2023-04-24T09:36:31;6.53;;;4.40;;
15946;SDS011;8072;52.554;7.966;2023-04-24T09:39:01;5.27;;;4.47;;
15946;SDS011;8072;52.554;7.966;2023-04-24T09:41:28;6.10;;;4.47;;
15946;SDS011;8072;52.554;7.966;2023-04-24T09:43:54;5.70;;;4.70;;
15946;SDS011;8072;52.554;7.966;2023-04-24T09:46:21;5.20;;;3.97;;
15946;SDS011;8072;52.554;7.966;2023-04-24T09:48:53;5.40;;;3.30;;
15946;SDS011;8072;52.554;7.966;2023-04-24T09:51:19;5.27;;;4.10;;
15946;SDS011;8072;52.554;7.966;2023-04-24T09:54:00;6.20;;;4.67;;
15946;SDS011;8072;52.554;7.966;2023-04-24T09:56:25;6.23;;;5.00;;
15946;SDS011;8072;52.554;7.966;2023-04-24T09:58:51;7.30;;;4.80;;
15946;SDS011;8072;52.554;7.966;2023-04-24T10:01:29;7.60;;;5.13;;
15946;SDS011;8072;52.554;7.966;2023-04-24T10:03:58;6.07;;;4.47;;
15946;SDS011;8072;52.554;7.966;2023-04-24T10:06:34;5.73;;;4.10;;
15946;SDS011;8072;52.554;7.966;2023-04-24T10:09:01;6.80;;;4.53;;
15946;SDS011;8072;52.554;7.966;2023-04-24T10:11:28;4.33;;;3.70;;
15946;SDS011;8072;52.554;7.966;2023-04-24T10:13:55;4.27;;;3.83;;
15946;SDS011;8072;52.554;7.966;2023-04-24T10:16:22;7.23;;;4.13;;
15946;SDS011;8072;52.554;7.966;2023-04-24T10:18:49;5.37;;;3.93;;
15946;SDS011;8072;52.554;7.966;2023-04-24T10:21:19;4.53;;;3.90;;
15946;SDS011;8072;52.554;7.966;2023-04-24T10:23:45;5.20;;;4.00;;
15946;SDS011;8072;52.554;7.966;2023-04-24T10:26:14;4.57;;;3.63;;
15946;SDS011;8072;52.554;7.966;2023-04-24T10:28:46;4.40;;;3.27;;
15946;SDS011;8072;52.554;7.966;2023-04-24T10:31:13;4.87;;;3.60;;
15946;SDS011;8072;52.554;7.966;2023-04-24T10:33:43;4.80;;;3.60;;
15946;SDS011;8072;52.554;7.966;2023-04-24T10:36:11;7.20;;;3.53;;
15946;SDS011;8072;52.554;7.966;2023-04-24T10:38:40;3.43;;;2.90;;
15946;SDS011;8072;52.554;7.966;2023-04-24T10:41:12;3.40;;;2.80;;
15946;SDS011;8072;52.554;7.966;2023-04-24T10:43:44;3.70;;;2.80;;
15946;SDS011;8072;52.554;7.966;2023-04-24T10:46:16;3.67;;;2.90;;
15946;SDS011;8072;52.554;7.966;2023-04-24T10:48:53;6.60;;;2.80;;
15946;SDS011;8072;52.554;7.966;2023-04-24T10:51:21;3.77;;;2.63;;
15946;SDS011;8072;52.554;7.966;2023-04-24T10:53:49;3.30;;;2.40;;
15946;SDS011;8072;52.554;7.966;2023-04-24T10:56:16;3.80;;;2.90;;
15946;SDS011;8072;52.554;7.966;2023-04-24T10:58:49;3.73;;;2.70;;
15946;SDS011;8072;52.554;7.966;2023-04-24T11:03:56;3.63;;;2.83;;
15946;SDS011;8072;52.554;7.966;2023-04-24T11:06:30;3.80;;;2.70;;
15946;SDS011;8072;52.554;7.966;2023-04-24T11:11:37;3.73;;;2.90;;
15946;SDS011;8072;52.554;7.966;2023-04-24T11:14:09;4.10;;;2.90;;
15946;SDS011;8072;52.554;7.966;2023-04-24T11:19:08;4.23;;;3.10;;
15946;SDS011;8072;52.554;7.966;2023-04-24T11:22:01;4.60;;;2.97;;
15946;SDS011;8072;52.554;7.966;2023-04-24T11:24:29;8.07;;;3.33;;
15946;SDS011;8072;52.554;7.966;2023-04-24T11:32:25;7.53;;;4.43;;
15946;SDS011;8072;52.554;7.966;2023-04-24T11:37:36;13.53;;;7.90;;
15946;SDS011;8072;52.554;7.966;2023-04-24T11:40:04;16.20;;;8.90;;
15946;SDS011;8072;52.554;7.966;2023-04-24T11:42:42;14.97;;;8.87;;
15946;SDS011;8072;52.554;7.966;2023-04-24T11:45:13;14.87;;;8.37;;
15946;SDS011;8072;52.554;7.966;2023-04-24T11:47:39;13.60;;;8.60;;
15946;SDS011;8072;52.554;7.966;2023-04-24T11:50:16;18.27;;;10.63;;
15946;SDS011;8072;52.554;7.966;2023-04-24T11:52:45;13.83;;;8.10;;
15946;SDS011;8072;52.554;7.966;2023-04-24T11:57:44;16.07;;;8.67;;
15946;SDS011;8072;52.554;7.966;2023-04-24T12:02:47;15.27;;;8.30;;
15946;SDS011;8072;52.554;7.966;2023-04-24T12:05:21;12.40;;;8.07;;
15946;SDS011;8072;52.554;7.966;2023-04-24T12:07:48;14.10;;;7.70;;
15946;SDS011;8072;52.554;7.966;2023-04-24T12:10:14;13.23;;;8.37;;
15946;SDS011;8072;52.554;7.966;2023-04-24T12:12:48;13.30;;;8.10;;
15946;SDS011;8072;52.554;7.966;2023-04-24T12:15:16;12.27;;;6.80;;
15946;SDS011;8072;52.554;7.966;2023-04-24T12:17:43;10.70;;;6.87;;
15946;SDS011;8072;52.554;7.966;2023-04-24T12:20:10;15.80;;;7.63;;
15946;SDS011;8072;52.554;7.966;2023-04-24T12:22:50;13.00;;;6.63;;
15946;SDS011;8072;52.554;7.966;2023-04-24T12:25:19;13.63;;;7.07;;
15946;SDS011;8072;52.554;7.966;2023-04-24T12:27:55;11.43;;;6.87;;
15946;SDS011;8072;52.554;7.966;2023-04-24T12:30:40;15.40;;;6.87;;
15946;SDS011;8072;52.554;7.966;2023-04-24T12:33:17;12.83;;;6.97;;
15946;SDS011;8072;52.554;7.966;2023-04-24T12:35:44;12.90;;;6.40;;
15946;SDS011;8072;52.554;7.966;2023-04-24T12:38:11;10.53;;;5.47;;
15946;SDS011;8072;52.554;7.966;2023-04-24T12:40:39;13.53;;;5.73;;
15946;SDS011;8072;52.554;7.966;2023-04-24T12:43:16;12.50;;;5.43;;
15946;SDS011;8072;52.554;7.966;2023-04-24T12:45:44;10.73;;;5.03;;
15946;SDS011;8072;52.554;7.966;2023-04-24T12:48:10;11.53;;;4.40;;
15946;SDS011;8072;52.554;7.966;2023-04-24T12:50:36;10.20;;;5.17;;
15946;SDS011;8072;52.554;7.966;2023-04-24T12:53:03;11.43;;;4.27;;
15946;SDS011;8072;52.554;7.966;2023-04-24T12:55:28;11.73;;;4.73;;
15946;SDS011;8072;52.554;7.966;2023-04-24T12:57:54;11.17;;;4.23;;
15946;SDS011;8072;52.554;7.966;2023-04-24T13:00:21;8.30;;;4.10;;
15946;SDS011;8072;52.554;7.966;2023-04-24T13:02:47;11.73;;;4.20;;
15946;SDS011;8072;52.554;7.966;2023-04-24T13:05:13;8.23;;;4.03;;
15946;SDS011;8072;52.554;7.966;2023-04-24T13:07:39;6.60;;;3.70;;
15946;SDS011;8072;52.554;7.966;2023-04-24T13:10:05;9.90;;;4.13;;
15946;SDS011;8072;52.554;7.966;2023-04-24T13:12:32;10.10;;;4.33;;
15946;SDS011;8072;52.554;7.966;2023-04-24T13:14:58;9.27;;;4.30;;
15946;SDS011;8072;52.554;7.966;2023-04-24T13:17:24;7.87;;;3.90;;
15946;SDS011;8072;52.554;7.966;2023-04-24T13:19:50;9.23;;;4.07;;
15946;SDS011;8072;52.554;7.966;2023-04-24T13:22:16;9.83;;;4.13;;
15946;SDS011;8072;52.554;7.966;2023-04-24T13:24:46;7.93;;;4.17;;
15946;SDS011;8072;52.554;7.966;2023-04-24T13:27:13;10.43;;;4.70;;
15946;SDS011;8072;52.554;7.966;2023-04-24T13:29:39;14.47;;;4.47;;
15946;SDS011;8072;52.554;7.966;2023-04-24T13:32:05;8.60;;;4.20;;
15946;SDS011;8072;52.554;7.966;2023-04-24T13:34:31;9.23;;;4.50;;
15946;SDS011;8072;52.554;7.966;2023-04-24T13:36:58;9.80;;;4.30;;
15946;SDS011;8072;52.554;7.966;2023-04-24T13:39:24;10.57;;;4.33;;
15946;SDS011;8072;52.554;7.966;2023-04-24T13:41:51;9.57;;;4.63;;
15946;SDS011;8072;52.554;7.966;2023-04-24T13:44:17;11.40;;;4.73;;
15946;SDS011;8072;52.554;7.966;2023-04-24T13:46:45;10.07;;;4.60;;
15946;SDS011;8072;52.554;7.966;2023-04-24T13:49:12;8.63;;;4.47;;
15946;SDS011;8072;52.554;7.966;2023-04-24T13:51:39;12.90;;;4.57;;
15946;SDS011;8072;52.554;7.966;2023-04-24T13:54:05;11.10;;;4.67;;
15946;SDS011;8072;52.554;7.966;2023-04-24T13:56:31;10.20;;;4.67;;
15946;SDS011;8072;52.554;7.966;2023-04-24T13:58:57;7.57;;;4.30;;
15946;SDS011;8072;52.554;7.966;2023-04-24T14:01:23;12.33;;;4.73;;
15946;SDS011;8072;52.554;7.966;2023-04-24T14:03:55;9.60;;;4.07;;
15946;SDS011;8072;52.554;7.966;2023-04-24T14:06:21;6.00;;;3.60;;
15946;SDS011;8072;52.554;7.966;2023-04-24T14:08:48;10.17;;;3.97;;
15946;SDS011;8072;52.554;7.966;2023-04-24T14:11:15;8.80;;;3.50;;
15946;SDS011;8072;52.554;7.966;2023-04-24T14:13:42;8.80;;;3.50;;
15946;SDS011;8072;52.554;7.966;2023-04-24T14:16:08;4.47;;;3.10;;
15946;SDS011;8072;52.554;7.966;2023-04-24T14:18:34;7.77;;;3.30;;
15946;SDS011;8072;52.554;7.966;2023-04-24T14:21:01;7.83;;;4.67;;
15946;SDS011;8072;52.554;7.966;2023-04-24T14:23:28;9.17;;;3.47;;
15946;SDS011;8072;52.554;7.966;2023-04-24T14:25:53;6.00;;;3.30;;
15946;SDS011;8072;52.554;7.966;2023-04-24T14:28:20;4.67;;;2.70;;
15946;SDS011;8072;52.554;7.966;2023-04-24T14:30:46;4.10;;;2.83;;
15946;SDS011;8072;52.554;7.966;2023-04-24T14:33:13;7.90;;;2.80;;
15946;SDS011;8072;52.554;7.966;2023-04-24T14:35:40;9.90;;;2.80;;
15946;SDS011;8072;52.554;7.966;2023-04-24T14:38:07;6.07;;;2.87;;
15946;SDS011;8072;52.554;7.966;2023-04-24T14:40:33;9.30;;;3.20;;
15946;SDS011;8072;52.554;7.966;2023-04-24T14:42:59;5.90;;;3.10;;
15946;SDS011;8072;52.554;7.966;2023-04-24T14:45:25;4.83;;;3.00;;
15946;SDS011;8072;52.554;7.966;2023-04-24T14:47:51;5.43;;;3.13;;
15946;SDS011;8072;52.554;7.966;2023-04-24T14:50:17;6.63;;;3.07;;
15946;SDS011;8072;52.554;7.966;2023-04-24T14:52:43;4.50;;;2.80;;
15946;SDS011;8072;52.554;7.966;2023-04-24T14:55:09;7.27;;;3.13;;
15946;SDS011;8072;52.554;7.966;2023-04-24T14:57:35;4.30;;;2.50;;
15946;SDS011;8072;52.554;7.966;2023-04-24T15:00:02;4.60;;;2.60;;
15946;SDS011;8072;52.554;7.966;2023-04-24T15:02:31;7.47;;;2.37;;
15946;SDS011;8072;52.554;7.966;2023-04-24T15:04:57;3.83;;;1.93;;
15946;SDS011;8072;52.554;7.966;2023-04-24T15:07:23;6.10;;;2.20;;
15946;SDS011;8072;52.554;7.966;2023-04-24T15:09:49;4.30;;;2.00;;
15946;SDS011;8072;52.554;7.966;2023-04-24T15:12:15;3.33;;;2.40;;
15946;SDS011;8072;52.554;7.966;2023-04-24T15:14:41;4.80;;;2.20;;
15946;SDS011;8072;52.554;7.966;2023-04-24T15:17:07;5.90;;;2.47;;